sensor_id;sensor_type;location;lat;lon;timestamp;temperature;humidity
27492;DHT22;14927;51.210;6.838;2023-04-24T00:00:22;16.40;52.80
27492;DHT22;14927;51.210;6.838;2023-04-24T00:03:07;16.40;52.90
27492;DHT22;14927;51.210;6.838;2023-04-24T00:05:52;16.30;52.90
27492;DHT22;14927;51.210;6.838;2023-04-24T00:08:37;16.30;53.00
27492;DHT22;14927;51.210;6.838;2023-04-24T00:11:21;16.30;53.80
27492;DHT22;14927;51.210;6.838;2023-04-24T00:14:06;16.30;53.30
27492;DHT22;14927;51.210;6.838;2023-04-24T00:16:50;16.30;53.30
27492;DHT22;14927;51.210;6.838;2023-04-24T00:19:35;16.20;53.30
27492;DHT22;14927;51.210;6.838;2023-04-24T00:22:20;16.20;53.40
27492;DHT22;14927;51.210;6.838;2023-04-24T00:25:05;16.20;53.50
27492;DHT22;14927;51.210;6.838;2023-04-24T00:27:49;16.20;53.50
27492;DHT22;14927;51.210;6.838;2023-04-24T00:30:35;16.10;53.40
27492;DHT22;14927;51.210;6.838;2023-04-24T00:33:20;16.10;53.40
27492;DHT22;14927;51.210;6.838;2023-04-24T00:36:06;16.10;53.40
27492;DHT22;14927;51.210;6.838;2023-04-24T00:38:50;16.10;53.40
27492;DHT22;14927;51.210;6.838;2023-04-24T00:41:35;16.00;53.30
27492;DHT22;14927;51.210;6.838;2023-04-24T00:44:20;16.00;53.10
27492;DHT22;14927;51.210;6.838;2023-04-24T00:47:05;16.00;53.00
27492;DHT22;14927;51.210;6.838;2023-04-24T00:49:49;16.00;52.80
27492;DHT22;14927;51.210;6.838;2023-04-24T00:52:34;15.90;52.60
27492;DHT22;14927;51.210;6.838;2023-04-24T00:55:19;15.90;52.40
27492;DHT22;14927;51.210;6.838;2023-04-24T00:58:04;15.90;52.20
27492;DHT22;14927;51.210;6.838;2023-04-24T01:00:50;15.80;52.10
27492;DHT22;14927;51.210;6.838;2023-04-24T01:03:37;15.90;52.20
27492;DHT22;14927;51.210;6.838;2023-04-24T01:06:22;15.80;52.20
27492;DHT22;14927;51.210;6.838;2023-04-24T01:09:08;15.80;52.30
27492;DHT22;14927;51.210;6.838;2023-04-24T01:11:56;15.80;52.30
27492;DHT22;14927;51.210;6.838;2023-04-24T01:14:40;15.80;52.30
27492;DHT22;14927;51.210;6.838;2023-04-24T01:17:25;15.80;52.20
27492;DHT22;14927;51.210;6.838;2023-04-24T01:20:10;15.80;52.10
27492;DHT22;14927;51.210;6.838;2023-04-24T01:22:55;15.70;52.30
27492;DHT22;14927;51.210;6.838;2023-04-24T01:25:44;15.70;52.40
27492;DHT22;14927;51.210;6.838;2023-04-24T01:28:29;15.60;52.50
27492;DHT22;14927;51.210;6.838;2023-04-24T01:31:14;15.60;52.60
27492;DHT22;14927;51.210;6.838;2023-04-24T01:33:59;15.60;52.70
27492;DHT22;14927;51.210;6.838;2023-04-24T01:36:45;15.60;52.80
27492;DHT22;14927;51.210;6.838;2023-04-24T01:39:30;15.50;52.90
27492;DHT22;14927;51.210;6.838;2023-04-24T01:42:16;15.50;53.10
27492;DHT22;14927;51.210;6.838;2023-04-24T01:45:02;15.40;53.10
27492;DHT22;14927;51.210;6.838;2023-04-24T01:47:47;15.40;53.20
27492;DHT22;14927;51.210;6.838;2023-04-24T01:50:34;15.30;53.20
27492;DHT22;14927;51.210;6.838;2023-04-24T01:53:19;15.30;53.30
27492;DHT22;14927;51.210;6.838;2023-04-24T01:56:03;15.20;53.40
27492;DHT22;14927;51.210;6.838;2023-04-24T01:58:50;15.20;53.60
27492;DHT22;14927;51.210;6.838;2023-04-24T02:01:37;15.10;53.70
27492;DHT22;14927;51.210;6.838;2023-04-24T02:04:22;15.10;53.80
27492;DHT22;14927;51.210;6.838;2023-04-24T02:07:06;15.00;53.80
27492;DHT22;14927;51.210;6.838;2023-04-24T02:09:52;15.00;54.00
27492;DHT22;14927;51.210;6.838;2023-04-24T02:12:36;14.90;54.20
27492;DHT22;14927;51.210;6.838;2023-04-24T02:15:21;14.90;54.40
27492;DHT22;14927;51.210;6.838;2023-04-24T02:18:06;14.90;54.50
27492;DHT22;14927;51.210;6.838;2023-04-24T02:20:51;14.80;54.60
27492;DHT22;14927;51.210;6.838;2023-04-24T02:23:36;14.80;54.70
27492;DHT22;14927;51.210;6.838;2023-04-24T02:26:21;14.80;54.90
27492;DHT22;14927;51.210;6.838;2023-04-24T02:29:05;14.80;54.90
27492;DHT22;14927;51.210;6.838;2023-04-24T02:31:50;14.80;55.00
27492;DHT22;14927;51.210;6.838;2023-04-24T02:34:35;14.80;55.00
27492;DHT22;14927;51.210;6.838;2023-04-24T02:37:20;14.70;55.10
27492;DHT22;14927;51.210;6.838;2023-04-24T02:40:05;14.70;55.10
27492;DHT22;14927;51.210;6.838;2023-04-24T02:42:50;14.70;55.30
27492;DHT22;14927;51.210;6.838;2023-04-24T02:45:35;14.70;55.30
27492;DHT22;14927;51.210;6.838;2023-04-24T02:48:20;14.60;55.40
27492;DHT22;14927;51.210;6.838;2023-04-24T02:51:05;14.70;55.60
27492;DHT22;14927;51.210;6.838;2023-04-24T02:53:51;14.60;55.50
27492;DHT22;14927;51.210;6.838;2023-04-24T02:56:36;14.60;55.60
27492;DHT22;14927;51.210;6.838;2023-04-24T02:59:20;14.60;55.70
27492;DHT22;14927;51.210;6.838;2023-04-24T03:02:05;14.60;55.70
27492;DHT22;14927;51.210;6.838;2023-04-24T03:04:50;14.70;55.90
27492;DHT22;14927;51.210;6.838;2023-04-24T03:07:35;14.60;55.90
27492;DHT22;14927;51.210;6.838;2023-04-24T03:10:21;14.60;56.00
27492;DHT22;14927;51.210;6.838;2023-04-24T03:13:06;14.60;56.10
27492;DHT22;14927;51.210;6.838;2023-04-24T03:15:51;14.60;56.50
27492;DHT22;14927;51.210;6.838;2023-04-24T03:18:35;14.60;56.00
27492;DHT22;14927;51.210;6.838;2023-04-24T03:21:20;14.70;56.10
27492;DHT22;14927;51.210;6.838;2023-04-24T03:24:04;14.70;56.10
27492;DHT22;14927;51.210;6.838;2023-04-24T03:26:49;14.70;56.10
27492;DHT22;14927;51.210;6.838;2023-04-24T03:29:34;14.70;56.00
27492;DHT22;14927;51.210;6.838;2023-04-24T03:32:19;14.70;55.90
27492;DHT22;14927;51.210;6.838;2023-04-24T03:35:04;14.70;55.90
27492;DHT22;14927;51.210;6.838;2023-04-24T03:37:50;14.70;55.80
27492;DHT22;14927;51.210;6.838;2023-04-24T03:40:35;14.70;55.80
27492;DHT22;14927;51.210;6.838;2023-04-24T03:43:19;14.70;55.80
27492;DHT22;14927;51.210;6.838;2023-04-24T03:46:04;14.60;55.70
27492;DHT22;14927;51.210;6.838;2023-04-24T03:48:49;14.50;55.80
27492;DHT22;14927;51.210;6.838;2023-04-24T03:51:34;14.60;55.80
27492;DHT22;14927;51.210;6.838;2023-04-24T03:54:19;14.70;55.90
27492;DHT22;14927;51.210;6.838;2023-04-24T03:57:04;14.60;55.80
27492;DHT22;14927;51.210;6.838;2023-04-24T03:59:49;14.60;55.80
27492;DHT22;14927;51.210;6.838;2023-04-24T04:02:33;14.60;55.70
27492;DHT22;14927;51.210;6.838;2023-04-24T04:05:18;14.70;55.80
27492;DHT22;14927;51.210;6.838;2023-04-24T04:08:02;14.70;55.80
27492;DHT22;14927;51.210;6.838;2023-04-24T04:10:47;14.70;55.70
27492;DHT22;14927;51.210;6.838;2023-04-24T04:13:31;14.70;55.60
27492;DHT22;14927;51.210;6.838;2023-04-24T04:16:16;14.70;55.70
27492;DHT22;14927;51.210;6.838;2023-04-24T04:19:01;14.60;55.60
27492;DHT22;14927;51.210;6.838;2023-04-24T04:21:47;14.60;55.60
27492;DHT22;14927;51.210;6.838;2023-04-24T04:24:36;14.60;55.70
27492;DHT22;14927;51.210;6.838;2023-04-24T04:27:22;14.60;55.70
27492;DHT22;14927;51.210;6.838;2023-04-24T04:30:07;14.60;55.80
27492;DHT22;14927;51.210;6.838;2023-04-24T04:32:53;14.60;56.00
27492;DHT22;14927;51.210;6.838;2023-04-24T04:35:38;14.60;55.90
27492;DHT22;14927;51.210;6.838;2023-04-24T04:38:23;14.60;55.90
27492;DHT22;14927;51.210;6.838;2023-04-24T04:41:08;14.60;55.90
27492;DHT22;14927;51.210;6.838;2023-04-24T04:43:53;14.60;56.10
